• Join FlightAware (Why Join?)
  • Login
  • US Flag 
10:29AM EDT


 

Airport Tracker/Info


-or-


 

Live Flight TrackerFlight Track Log ✈ FLG3862 ✈ 16-May-2013 ✈ KBTV - KDTW

Flight Track Log - Related Links

Times and Time Zones

All times are in EDT time to prevent confusion due to time zone crossing. See the FLG3862 flight status page for this flight to view local times or setup timezone preferences in your user account.

Time Position Orientation Groundspeed Altitude Reporting Facility
EDT Latitude Longitude Course Direction KTS MPH feet Rate Location/Type
12:54PM 44.5078 -73.3453 255° West 235 270 7,100  Level Boston Center
12:55PM 44.4925 -73.4294 256° West 235 270 9,500 2,220 Climbing Boston Center
12:56PM 44.4686 -73.5483 254° West 249 287 12,000 2,160 Climbing Boston Center
12:57PM 44.3421 -73.8723 259° West  Level FlightAware Approximate
12:57PM 44.4464 -73.6642 255° West 291 335 13,900  Level Boston Center
12:58PM 44.3224 -73.9931 256° West  Level FlightAware Approximate
12:58PM 44.4244 -73.7858 256° West 316 364 16,200  Level Boston Center
12:59PM 44.4000 -73.9044 254° West 321 369 17,900 1,740 Climbing Boston Center
01:00PM 44.3756 -74.0258 254° West 321 369 19,700 1,560 Climbing Boston Center
01:01PM 44.3506 -74.1531 255° West 327 376 21,100 1,440 Climbing Boston Center
01:02PM 44.3258 -74.2800 255° West 339 390 22,600 1,500 Climbing Boston Center
01:03PM 44.3008 -74.4039 254° West 339 390 24,100 1,440 Climbing Boston Center
01:04PM 44.2758 -74.5219 254° West 334 384 25,500 1,200 Climbing Boston Center
01:05PM 44.2528 -74.6400 255° West 329 379 26,500 780 Climbing Boston Center
01:06PM 44.2297 -74.7581 255° West 324 373 27,100 540 Climbing Boston Center
01:07PM 44.2042 -74.8814 254° West 324 373 27,600 420 Climbing Boston Center
01:08PM 44.1808 -75.0022 255° West 319 367 28,000 180 Climbing Boston Center
01:09PM 44.1503 -75.1456 253° West 338 389 28,000  Level Boston Center
01:10PM 44.1222 -75.2772 254° West 344 396 28,000  Level Boston Center
01:11PM 44.0939 -75.4089 253° West 355 409 28,000  Level Boston Center
01:12PM 44.0675 -75.5378 254° West 355 409 28,000  Level Boston Center
01:13PM 44.0386 -75.6719 253° West 355 409 28,000  Level Boston Center
01:14PM 44.0119 -75.8092 255° West 360 414 28,000  Level Boston Center
01:15PM 43.9850 -75.9375 254° West 360 414 28,000  Level Boston Center
01:16PM 43.9581 -76.0717 254° West 355 409 28,000  Level Boston Center
01:17PM 43.9539 -76.2042 268° West 355 409 28,000  Level Boston Center
01:18PM 43.9492 -76.3422 267° West 355 409 28,000  Level Boston Center
01:19PM 43.9444 -76.4775 267° West 355 409 28,000  Level Boston Center
01:20PM 43.9417 -76.6158 268° West 355 409 28,000  Level Boston Center
01:21PM 43.9386 -76.7511 268° West 355 409 28,000  Level Boston Center
01:22PM 43.9167 -76.8833 257° West 350 403 28,000  Level Toronto Center
01:23PM 43.9167 -77.0167 270° West 360 414 28,000  Level Toronto Center
01:24PM 43.9000 -77.1500 260° West 360 414 28,000  Level Toronto Center
01:25PM 43.9000 -77.3000 270° West 360 414 28,000  Level Toronto Center
01:26PM 43.9000 -77.4333 270° West 360 414 28,000  Level Toronto Center
01:27PM 43.9000 -77.5667 270° West 360 414 28,000  Level Toronto Center
01:28PM 43.8833 -77.7167 261° West 360 414 28,000  Level Toronto Center
01:29PM 43.8833 -77.8500 270° West 360 414 28,000  Level Toronto Center
01:30PM 43.8833 -77.9833 270° West 360 414 28,000  Level Toronto Center
01:31PM 43.8667 -78.1333 261° West 370 426 28,000  Level Toronto Center
01:32PM 43.8667 -78.2667 270° West 370 426 28,000  Level Toronto Center
01:33PM 43.8500 -78.4333 262° West 370 426 28,000  Level Toronto Center
01:34PM 43.8667 -78.5667 280° West 370 426 28,000  Level Toronto Center
01:35PM 43.8500 -78.7000 260° West 370 426 28,000  Level Toronto Center
01:36PM 43.7833 -78.8167 232° Southwest 390 449 28,000  Level Toronto Center
01:37PM 43.7333 -78.9333 239° Southwest 400 460 28,000  Level Toronto Center
01:38PM 43.6667 -79.0833 238° Southwest 400 460 28,000  Level Toronto Center
01:39PM 43.6000 -79.2000 232° Southwest 400 460 28,000  Level Toronto Center
01:40PM 43.5333 -79.3333 235° Southwest 400 460 28,000  Level Toronto Center
01:41PM 43.4667 -79.4500 232° Southwest 400 460 28,000  Level Toronto Center
01:42PM 43.4000 -79.5667 232° Southwest 400 460 28,000  Level Toronto Center
01:43PM 43.3333 -79.7000 236° Southwest 400 460 28,000  Level Toronto Center
01:44PM 43.2667 -79.8167 232° Southwest 410 472 28,000  Level Toronto Center
01:45PM 43.2000 -79.9500 236° Southwest 410 472 28,000 -240 Level Toronto Center
01:46PM 43.1333 -80.0667 232° Southwest 410 472 27,600 -900 Descending Toronto Center
01:47PM 43.0667 -80.2000 236° Southwest 410 472 26,300 -1,500 Descending Toronto Center
01:48PM 43.0000 -80.3333 236° Southwest 410 472 24,700 -1,260 Descending Toronto Center
01:49PM 42.9333 -80.4500 232° Southwest 400 460 23,800 -900 Descending Toronto Center
01:50PM 42.8667 -80.5667 232° Southwest 400 460 23,000 -660 Descending Toronto Center
01:51PM 42.8333 -80.6625 245° Southwest 403 464 22,800 -660 Descending Cleveland Center
01:52PM 42.7789 -80.7642 234° Southwest 387 445 22,000 -420 Descending Cleveland Center
01:53PM 42.7183 -80.8742 233° Southwest 382 440 22,000  Level Cleveland Center
01:54PM 42.6928 -81.0011 255° West 357 411 22,000  Level Cleveland Center
01:55PM 42.6797 -81.1311 262° West 357 411 22,000  Level Cleveland Center
01:56PM 42.6644 -81.2608 261° West 351 404 22,000  Level Cleveland Center
01:57PM 42.6511 -81.3906 262° West 351 404 22,000  Level Cleveland Center
01:58PM 42.6356 -81.5172 261° West 351 404 22,000  Level Cleveland Center
01:59PM 42.6156 -81.6636 260° West 357 411 22,000  Level Cleveland Center
02:00PM 42.5997 -81.7989 261° West 370 426 22,000 -720 Level Cleveland Center
02:01PM 42.5814 -81.9367 260° West 370 426 20,600 -1,740 Descending Cleveland Center
02:02PM 42.5672 -82.0689 262° West 370 426 18,600 -2,040 Descending Cleveland Center
02:03PM 42.5531 -82.1983 262° West 365 420 16,600 -2,100 Descending Cleveland Center
02:03PM 42.5461 -82.2458 259° West 342 394 15,700 -2,040 Descending Cleveland Center
02:04PM 42.5347 -82.3189 258° West 354 407 14,600 -1,920 Descending Cleveland Center
02:05PM 42.5317 -82.3808 266° West 325 374 13,600 -1,740 Descending Cleveland Center
02:05PM 42.5203 -82.4397 255° West 341 392 12,900 -1,380 Descending Cleveland Center
02:06PM 42.5106 -82.5211 261° West 329 379 12,100 -900 Descending Cleveland Center
02:06PM 42.5014 -82.5631 254° West 336 387 12,000  Descending Cleveland Center
02:07PM 42.4797 -82.6242 244° Southwest 345 397 12,100  Climbing Cleveland Center
02:07PM 42.4619 -82.6772 246° West 331 381 12,000 -660 Descending Cleveland Center
02:08PM 42.4314 -82.7578 243° Southwest 340 391 11,400 -840 Descending Cleveland Center
02:08PM 42.4203 -82.7911 246° West 337 388 11,200 -480 Descending Cleveland Center
02:09PM 42.4003 -82.8494 245° Southwest 303 349 11,000 -240 Descending Cleveland Center
02:09PM 42.3850 -82.8856 240° Southwest 320 368 11,000 60 Level Cleveland Center
02:10PM 42.3672 -82.9353 244° Southwest 220 253 11,100  Climbing Cleveland Center
02:10PM 42.3564 -82.9631 242° Southwest 270 311 11,000 -120 Descending Cleveland Center
02:11PM 42.3386 -83.0186 247° West 237 273 11,000  Level Cleveland Center
02:11PM 42.3275 -83.0464 242° Southwest 249 287 11,000  Level Cleveland Center
02:12PM 42.3097 -83.0989 245° Southwest 243 280 11,000  Level Cleveland Center
02:12PM 42.2986 -83.1267 242° Southwest 244 281 11,000 60 Level Cleveland Center
02:13PM 42.2661 -83.1814 231° Southwest 248 285 11,100 -120 Climbing Cleveland Center
02:14PM 42.2111 -83.2211 208° Southwest 254 292 10,800 -1,020 Descending Cleveland Center
02:15PM 42.1494 -83.2664 209° Southwest 247 284 9,200 -1,020 Descending Cleveland Center
02:16PM 42.0944 -83.3003 205° Southwest 188 216 8,800 -840 Descending Cleveland Center
02:17PM 42.0436 -83.3400 210° Southwest 194 223 7,500 -1,260 Descending Cleveland Center
02:18PM 41.9928 -83.3686 203° Southwest 187 215 6,300 -1,200 Descending Cleveland Center